sensor_id;sensor_type;location;lat;lon;timestamp;temperature;humidity
19906;DHT22;10115;50.906;4.438;2023-05-10T00:02:06;12.70;99.90
19906;DHT22;10115;50.906;4.438;2023-05-10T00:04:32;12.60;99.90
19906;DHT22;10115;50.906;4.438;2023-05-10T00:06:58;12.60;99.90
19906;DHT22;10115;50.906;4.438;2023-05-10T00:09:23;12.60;99.90
19906;DHT22;10115;50.906;4.438;2023-05-10T00:11:49;12.60;99.90
19906;DHT22;10115;50.906;4.438;2023-05-10T00:14:16;12.50;99.90
19906;DHT22;10115;50.906;4.438;2023-05-10T00:16:41;12.60;99.90
19906;DHT22;10115;50.906;4.438;2023-05-10T00:19:07;12.60;99.90
19906;DHT22;10115;50.906;4.438;2023-05-10T00:21:33;12.70;99.90
19906;DHT22;10115;50.906;4.438;2023-05-10T00:23:59;12.70;99.90
19906;DHT22;10115;50.906;4.438;2023-05-10T00:26:25;12.70;99.90
19906;DHT22;10115;50.906;4.438;2023-05-10T00:28:51;12.70;99.90
19906;DHT22;10115;50.906;4.438;2023-05-10T00:31:16;12.70;99.90
19906;DHT22;10115;50.906;4.438;2023-05-10T00:33:42;12.80;99.90
19906;DHT22;10115;50.906;4.438;2023-05-10T00:36:08;12.80;99.90
19906;DHT22;10115;50.906;4.438;2023-05-10T00:38:34;12.80;99.90
19906;DHT22;10115;50.906;4.438;2023-05-10T00:40:59;12.70;99.90
19906;DHT22;10115;50.906;4.438;2023-05-10T00:43:25;12.80;99.90
19906;DHT22;10115;50.906;4.438;2023-05-10T00:45:51;12.80;99.90
19906;DHT22;10115;50.906;4.438;2023-05-10T00:48:16;12.60;99.90
19906;DHT22;10115;50.906;4.438;2023-05-10T00:50:42;12.70;99.90
19906;DHT22;10115;50.906;4.438;2023-05-10T00:53:08;12.80;99.90
19906;DHT22;10115;50.906;4.438;2023-05-10T00:55:34;12.70;99.90
19906;DHT22;10115;50.906;4.438;2023-05-10T00:58:00;12.70;99.90
19906;DHT22;10115;50.906;4.438;2023-05-10T01:00:26;12.70;99.90
19906;DHT22;10115;50.906;4.438;2023-05-10T01:02:53;12.80;99.90
19906;DHT22;10115;50.906;4.438;2023-05-10T01:05:19;12.80;99.90
19906;DHT22;10115;50.906;4.438;2023-05-10T01:07:45;12.80;99.90
19906;DHT22;10115;50.906;4.438;2023-05-10T01:10:11;12.80;99.90
19906;DHT22;10115;50.906;4.438;2023-05-10T01:12:39;12.80;99.90
19906;DHT22;10115;50.906;4.438;2023-05-10T01:15:07;12.70;99.90
19906;DHT22;10115;50.906;4.438;2023-05-10T01:17:34;12.70;99.90
19906;DHT22;10115;50.906;4.438;2023-05-10T01:20:01;12.70;99.90
19906;DHT22;10115;50.906;4.438;2023-05-10T01:35:45;12.60;99.90
19906;DHT22;10115;50.906;4.438;2023-05-10T01:43:28;12.60;99.90
19906;DHT22;10115;50.906;4.438;2023-05-10T01:46:07;12.70;99.90
19906;DHT22;10115;50.906;4.438;2023-05-10T01:48:39;12.60;99.90
19906;DHT22;10115;50.906;4.438;2023-05-10T01:51:06;12.60;99.90
19906;DHT22;10115;50.906;4.438;2023-05-10T01:53:34;12.60;99.90
19906;DHT22;10115;50.906;4.438;2023-05-10T01:56:01;12.60;99.90
19906;DHT22;10115;50.906;4.438;2023-05-10T01:58:32;12.60;99.90
19906;DHT22;10115;50.906;4.438;2023-05-10T02:01:02;12.60;99.90
19906;DHT22;10115;50.906;4.438;2023-05-10T02:03:29;12.60;99.90
19906;DHT22;10115;50.906;4.438;2023-05-10T02:05:57;12.50;99.90
19906;DHT22;10115;50.906;4.438;2023-05-10T02:08:25;12.60;99.90
19906;DHT22;10115;50.906;4.438;2023-05-10T02:10:54;12.60;99.90
19906;DHT22;10115;50.906;4.438;2023-05-10T02:13:21;12.60;99.90
19906;DHT22;10115;50.906;4.438;2023-05-10T02:15:48;12.60;99.90
19906;DHT22;10115;50.906;4.438;2023-05-10T02:18:15;12.60;99.90
19906;DHT22;10115;50.906;4.438;2023-05-10T02:20:44;12.60;99.90
19906;DHT22;10115;50.906;4.438;2023-05-10T02:23:11;12.60;99.90
19906;DHT22;10115;50.906;4.438;2023-05-10T02:25:37;12.60;99.90
19906;DHT22;10115;50.906;4.438;2023-05-10T02:28:05;12.50;99.90
19906;DHT22;10115;50.906;4.438;2023-05-10T02:30:33;12.60;99.90
19906;DHT22;10115;50.906;4.438;2023-05-10T02:33:00;12.60;99.90
19906;DHT22;10115;50.906;4.438;2023-05-10T02:35:27;12.50;99.90
19906;DHT22;10115;50.906;4.438;2023-05-10T02:37:53;12.50;99.90
19906;DHT22;10115;50.906;4.438;2023-05-10T02:40:21;12.60;99.90
19906;DHT22;10115;50.906;4.438;2023-05-10T02:42:48;12.50;99.90
19906;DHT22;10115;50.906;4.438;2023-05-10T02:45:19;12.50;99.90
19906;DHT22;10115;50.906;4.438;2023-05-10T02:47:46;12.50;99.90
19906;DHT22;10115;50.906;4.438;2023-05-10T02:50:12;12.60;99.90
19906;DHT22;10115;50.906;4.438;2023-05-10T02:52:46;12.60;99.90
19906;DHT22;10115;50.906;4.438;2023-05-10T02:55:15;12.60;99.90
19906;DHT22;10115;50.906;4.438;2023-05-10T02:57:52;12.50;99.90
19906;DHT22;10115;50.906;4.438;2023-05-10T03:00:18;12.50;99.90
19906;DHT22;10115;50.906;4.438;2023-05-10T03:02:43;12.50;99.90
19906;DHT22;10115;50.906;4.438;2023-05-10T03:05:09;12.50;99.90
19906;DHT22;10115;50.906;4.438;2023-05-10T03:07:35;12.50;99.90
19906;DHT22;10115;50.906;4.438;2023-05-10T03:10:01;12.50;99.90
19906;DHT22;10115;50.906;4.438;2023-05-10T03:18:01;12.50;99.90
19906;DHT22;10115;50.906;4.438;2023-05-10T03:20:38;12.50;99.90
19906;DHT22;10115;50.906;4.438;2023-05-10T03:23:11;12.50;99.90
19906;DHT22;10115;50.906;4.438;2023-05-10T03:25:37;12.40;99.90
19906;DHT22;10115;50.906;4.438;2023-05-10T03:28:06;12.50;99.90
19906;DHT22;10115;50.906;4.438;2023-05-10T03:30:32;12.40;99.90
19906;DHT22;10115;50.906;4.438;2023-05-10T03:32:58;12.40;99.90
19906;DHT22;10115;50.906;4.438;2023-05-10T03:35:29;12.40;99.90
19906;DHT22;10115;50.906;4.438;2023-05-10T03:37:55;12.40;99.90
19906;DHT22;10115;50.906;4.438;2023-05-10T03:40:20;12.40;99.90
19906;DHT22;10115;50.906;4.438;2023-05-10T03:42:46;12.40;99.90
19906;DHT22;10115;50.906;4.438;2023-05-10T03:45:11;12.40;99.90
19906;DHT22;10115;50.906;4.438;2023-05-10T03:47:37;12.40;99.90
19906;DHT22;10115;50.906;4.438;2023-05-10T03:50:03;12.40;99.90
19906;DHT22;10115;50.906;4.438;2023-05-10T03:52:29;12.40;99.90
19906;DHT22;10115;50.906;4.438;2023-05-10T03:54:55;12.40;99.90
19906;DHT22;10115;50.906;4.438;2023-05-10T03:57:20;12.40;99.90
19906;DHT22;10115;50.906;4.438;2023-05-10T03:59:46;12.40;99.90
19906;DHT22;10115;50.906;4.438;2023-05-10T04:02:11;12.40;99.90
19906;DHT22;10115;50.906;4.438;2023-05-10T04:04:37;12.40;99.90
19906;DHT22;10115;50.906;4.438;2023-05-10T04:07:03;12.40;99.90
19906;DHT22;10115;50.906;4.438;2023-05-10T04:09:28;12.40;99.90
19906;DHT22;10115;50.906;4.438;2023-05-10T04:11:54;12.40;99.90
19906;DHT22;10115;50.906;4.438;2023-05-10T04:14:20;12.40;99.90
19906;DHT22;10115;50.906;4.438;2023-05-10T04:16:46;12.40;99.90
19906;DHT22;10115;50.906;4.438;2023-05-10T04:19:11;12.40;99.90
19906;DHT22;10115;50.906;4.438;2023-05-10T04:21:37;12.40;99.90
19906;DHT22;10115;50.906;4.438;2023-05-10T04:24:03;12.40;99.90
19906;DHT22;10115;50.906;4.438;2023-05-10T04:26:28;12.40;99.90
19906;DHT22;10115;50.906;4.438;2023-05-10T04:28:54;12.40;99.90
19906;DHT22;10115;50.906;4.438;2023-05-10T04:31:20;12.30;99.90
19906;DHT22;10115;50.906;4.438;2023-05-10T04:33:46;12.30;99.90
19906;DHT22;10115;50.906;4.438;2023-05-10T04:36:11;12.30;99.90
19906;DHT22;10115;50.906;4.438;2023-05-10T04:38:37;12.40;99.90
19906;DHT22;10115;50.906;4.438;2023-05-10T04:41:09;12.40;99.90
19906;DHT22;10115;50.906;4.438;2023-05-10T04:43:36;12.40;99.90
19906;DHT22;10115;50.906;4.438;2023-05-10T04:46:02;12.40;99.90
19906;DHT22;10115;50.906;4.438;2023-05-10T04:48:28;12.40;99.90
19906;DHT22;10115;50.906;4.438;2023-05-10T04:50:54;12.40;99.90
19906;DHT22;10115;50.906;4.438;2023-05-10T04:53:19;12.40;99.90
19906;DHT22;10115;50.906;4.438;2023-05-10T04:55:45;12.50;99.90
19906;DHT22;10115;50.906;4.438;2023-05-10T04:58:12;12.60;99.90
19906;DHT22;10115;50.906;4.438;2023-05-10T05:00:38;12.70;99.90
19906;DHT22;10115;50.906;4.438;2023-05-10T05:03:03;12.60;99.90
19906;DHT22;10115;50.906;4.438;2023-05-10T05:05:29;12.80;99.90
19906;DHT22;10115;50.906;4.438;2023-05-10T05:07:55;12.80;99.90
19906;DHT22;10115;50.906;4.438;2023-05-10T05:10:20;12.70;99.90
19906;DHT22;10115;50.906;4.438;2023-05-10T05:12:46;12.70;99.90
19906;DHT22;10115;50.906;4.438;2023-05-10T05:15:11;12.60;99.90
19906;DHT22;10115;50.906;4.438;2023-05-10T05:17:37;12.60;99.90
19906;DHT22;10115;50.906;4.438;2023-05-10T05:20:03;12.60;99.90
19906;DHT22;10115;50.906;4.438;2023-05-10T05:22:29;12.40;99.90
19906;DHT22;10115;50.906;4.438;2023-05-10T05:24:55;12.40;99.90
19906;DHT22;10115;50.906;4.438;2023-05-10T05:27:22;12.40;99.90
19906;DHT22;10115;50.906;4.438;2023-05-10T05:29:50;12.40;99.90
19906;DHT22;10115;50.906;4.438;2023-05-10T05:32:16;12.40;99.90
19906;DHT22;10115;50.906;4.438;2023-05-10T05:34:43;12.50;99.90
19906;DHT22;10115;50.906;4.438;2023-05-10T05:37:13;12.50;99.90
19906;DHT22;10115;50.906;4.438;2023-05-10T05:39:39;12.50;99.90
19906;DHT22;10115;50.906;4.438;2023-05-10T05:42:05;12.60;99.90
19906;DHT22;10115;50.906;4.438;2023-05-10T05:44:30;12.50;99.90
19906;DHT22;10115;50.906;4.438;2023-05-10T05:46:56;12.70;99.90
19906;DHT22;10115;50.906;4.438;2023-05-10T05:49:22;12.70;99.90
19906;DHT22;10115;50.906;4.438;2023-05-10T05:51:48;12.70;99.90
19906;DHT22;10115;50.906;4.438;2023-05-10T05:54:15;12.80;99.90
19906;DHT22;10115;50.906;4.438;2023-05-10T05:56:41;12.80;99.90
19906;DHT22;10115;50.906;4.438;2023-05-10T05:59:07;12.90;99.90
19906;DHT22;10115;50.906;4.438;2023-05-10T06:01:33;12.90;99.90
19906;DHT22;10115;50.906;4.438;2023-05-10T06:03:58;12.90;99.90
19906;DHT22;10115;50.906;4.438;2023-05-10T06:06:24;12.80;99.90
19906;DHT22;10115;50.906;4.438;2023-05-10T06:08:50;13.00;99.90
19906;DHT22;10115;50.906;4.438;2023-05-10T06:11:15;13.00;99.90
19906;DHT22;10115;50.906;4.438;2023-05-10T06:13:41;13.00;99.90
19906;DHT22;10115;50.906;4.438;2023-05-10T06:16:07;13.10;99.90
19906;DHT22;10115;50.906;4.438;2023-05-10T06:18:33;13.40;99.90
19906;DHT22;10115;50.906;4.438;2023-05-10T06:20:59;13.50;99.90
19906;DHT22;10115;50.906;4.438;2023-05-10T06:23:25;13.60;99.90
19906;DHT22;10115;50.906;4.438;2023-05-10T06:25:51;13.60;99.90
19906;DHT22;10115;50.906;4.438;2023-05-10T06:28:17;13.60;99.90
19906;DHT22;10115;50.906;4.438;2023-05-10T06:30:42;13.70;99.90
19906;DHT22;10115;50.906;4.438;2023-05-10T06:33:08;13.50;99.90
19906;DHT22;10115;50.906;4.438;2023-05-10T06:35:34;13.50;99.90
19906;DHT22;10115;50.906;4.438;2023-05-10T06:38:00;13.50;99.90
19906;DHT22;10115;50.906;4.438;2023-05-10T06:40:26;13.50;99.90
19906;DHT22;10115;50.906;4.438;2023-05-10T06:42:51;13.40;99.90
19906;DHT22;10115;50.906;4.438;2023-05-10T06:45:17;13.30;99.90
19906;DHT22;10115;50.906;4.438;2023-05-10T06:47:43;13.40;99.90
19906;DHT22;10115;50.906;4.438;2023-05-10T06:50:09;13.50;99.90
19906;DHT22;10115;50.906;4.438;2023-05-10T06:52:35;13.60;99.90
19906;DHT22;10115;50.906;4.438;2023-05-10T06:55:03;13.70;99.90
19906;DHT22;10115;50.906;4.438;2023-05-10T06:57:29;13.60;99.90
19906;DHT22;10115;50.906;4.438;2023-05-10T06:59:54;13.60;99.90
19906;DHT22;10115;50.906;4.438;2023-05-10T07:02:22;13.50;99.90
19906;DHT22;10115;50.906;4.438;2023-05-10T07:04:48;13.40;99.90
19906;DHT22;10115;50.906;4.438;2023-05-10T07:07:14;13.40;99.90
19906;DHT22;10115;50.906;4.438;2023-05-10T07:09:40;13.40;99.90
19906;DHT22;10115;50.906;4.438;2023-05-10T07:12:06;13.60;99.90
19906;DHT22;10115;50.906;4.438;2023-05-10T07:14:32;13.30;99.90
19906;DHT22;10115;50.906;4.438;2023-05-10T07:16:57;13.20;99.90
19906;DHT22;10115;50.906;4.438;2023-05-10T07:19:23;13.10;99.90
19906;DHT22;10115;50.906;4.438;2023-05-10T07:21:49;12.90;99.90
19906;DHT22;10115;50.906;4.438;2023-05-10T07:24:15;12.90;99.90
19906;DHT22;10115;50.906;4.438;2023-05-10T07:26:41;12.90;99.90
19906;DHT22;10115;50.906;4.438;2023-05-10T07:29:07;13.00;99.90
19906;DHT22;10115;50.906;4.438;2023-05-10T07:31:32;13.00;99.90
19906;DHT22;10115;50.906;4.438;2023-05-10T07:33:58;13.00;99.90
19906;DHT22;10115;50.906;4.438;2023-05-10T07:36:26;13.00;99.90
19906;DHT22;10115;50.906;4.438;2023-05-10T07:38:53;12.90;99.90
19906;DHT22;10115;50.906;4.438;2023-05-10T07:41:18;12.70;99.90
19906;DHT22;10115;50.906;4.438;2023-05-10T07:43:44;12.80;99.90
19906;DHT22;10115;50.906;4.438;2023-05-10T07:46:20;12.90;99.90
19906;DHT22;10115;50.906;4.438;2023-05-10T07:48:46;12.90;99.90
19906;DHT22;10115;50.906;4.438;2023-05-10T07:51:11;12.90;99.90
19906;DHT22;10115;50.906;4.438;2023-05-10T07:53:38;12.90;99.90
19906;DHT22;10115;50.906;4.438;2023-05-10T07:56:24;12.80;99.90
19906;DHT22;10115;50.906;4.438;2023-05-10T07:58:52;12.80;99.90
19906;DHT22;10115;50.906;4.438;2023-05-10T08:01:18;12.80;99.90
19906;DHT22;10115;50.906;4.438;2023-05-10T08:03:45;12.80;99.90
19906;DHT22;10115;50.906;4.438;2023-05-10T08:06:10;12.50;99.90
19906;DHT22;10115;50.906;4.438;2023-05-10T08:08:36;12.50;99.90
19906;DHT22;10115;50.906;4.438;2023-05-10T08:11:03;12.40;99.90
19906;DHT22;10115;50.906;4.438;2023-05-10T08:13:28;12.40;99.90
19906;DHT22;10115;50.906;4.438;2023-05-10T08:15:54;12.50;99.90
19906;DHT22;10115;50.906;4.438;2023-05-10T08:18:20;12.30;99.90
19906;DHT22;10115;50.906;4.438;2023-05-10T08:20:45;12.30;99.90
19906;DHT22;10115;50.906;4.438;2023-05-10T08:23:12;12.40;99.90
19906;DHT22;10115;50.906;4.438;2023-05-10T08:25:39;12.30;99.90
19906;DHT22;10115;50.906;4.438;2023-05-10T08:28:04;12.40;99.90
19906;DHT22;10115;50.906;4.438;2023-05-10T08:30:30;12.40;99.90
19906;DHT22;10115;50.906;4.438;2023-05-10T08:32:56;12.50;99.90
19906;DHT22;10115;50.906;4.438;2023-05-10T08:35:21;12.60;99.90
19906;DHT22;10115;50.906;4.438;2023-05-10T08:37:47;12.70;99.90
19906;DHT22;10115;50.906;4.438;2023-05-10T08:40:14;12.60;99.90
19906;DHT22;10115;50.906;4.438;2023-05-10T08:42:45;12.90;99.90
19906;DHT22;10115;50.906;4.438;2023-05-10T08:45:13;13.10;99.90
19906;DHT22;10115;50.906;4.438;2023-05-10T08:47:40;13.00;99.90
19906;DHT22;10115;50.906;4.438;2023-05-10T08:50:06;12.90;99.90
19906;DHT22;10115;50.906;4.438;2023-05-10T08:52:33;12.80;99.90
19906;DHT22;10115;50.906;4.438;2023-05-10T08:55:03;12.90;99.90
19906;DHT22;10115;50.906;4.438;2023-05-10T08:57:29;12.90;99.90
19906;DHT22;10115;50.906;4.438;2023-05-10T08:59:56;12.90;99.90
19906;DHT22;10115;50.906;4.438;2023-05-10T09:02:23;13.00;99.90
19906;DHT22;10115;50.906;4.438;2023-05-10T09:04:49;12.70;99.90
19906;DHT22;10115;50.906;4.438;2023-05-10T09:07:17;12.80;99.90
19906;DHT22;10115;50.906;4.438;2023-05-10T09:09:43;12.70;99.90
19906;DHT22;10115;50.906;4.438;2023-05-10T09:12:09;12.70;99.90
19906;DHT22;10115;50.906;4.438;2023-05-10T09:14:37;12.70;99.90
19906;DHT22;10115;50.906;4.438;2023-05-10T09:17:04;12.80;99.90
19906;DHT22;10115;50.906;4.438;2023-05-10T09:19:30;12.80;99.90
19906;DHT22;10115;50.906;4.438;2023-05-10T09:21:56;12.90;99.90
19906;DHT22;10115;50.906;4.438;2023-05-10T09:24:26;12.90;99.90
19906;DHT22;10115;50.906;4.438;2023-05-10T09:26:57;12.80;99.90
19906;DHT22;10115;50.906;4.438;2023-05-10T09:29:23;12.80;99.90
19906;DHT22;10115;50.906;4.438;2023-05-10T09:31:50;12.90;99.90
19906;DHT22;10115;50.906;4.438;2023-05-10T09:34:32;12.90;99.90
19906;DHT22;10115;50.906;4.438;2023-05-10T09:37:00;12.90;99.90
19906;DHT22;10115;50.906;4.438;2023-05-10T09:39:36;12.90;99.90
19906;DHT22;10115;50.906;4.438;2023-05-10T09:42:09;12.80;99.90
19906;DHT22;10115;50.906;4.438;2023-05-10T09:44:36;12.80;99.90
19906;DHT22;10115;50.906;4.438;2023-05-10T09:47:06;12.90;99.90
19906;DHT22;10115;50.906;4.438;2023-05-10T09:49:32;12.90;99.90
19906;DHT22;10115;50.906;4.438;2023-05-10T09:52:06;12.90;99.90
19906;DHT22;10115;50.906;4.438;2023-05-10T09:54:32;12.90;99.90
19906;DHT22;10115;50.906;4.438;2023-05-10T09:56:58;13.00;99.90
19906;DHT22;10115;50.906;4.438;2023-05-10T09:59:28;13.00;99.90
19906;DHT22;10115;50.906;4.438;2023-05-10T10:01:58;13.10;99.90
19906;DHT22;10115;50.906;4.438;2023-05-10T10:04:24;13.10;99.90
19906;DHT22;10115;50.906;4.438;2023-05-10T10:07:03;13.20;99.90
19906;DHT22;10115;50.906;4.438;2023-05-10T10:09:30;13.20;99.90
19906;DHT22;10115;50.906;4.438;2023-05-10T10:11:56;13.20;99.90
19906;DHT22;10115;50.906;4.438;2023-05-10T10:14:23;13.40;99.90
19906;DHT22;10115;50.906;4.438;2023-05-10T10:17:02;13.30;99.90
19906;DHT22;10115;50.906;4.438;2023-05-10T10:19:28;13.40;99.90
19906;DHT22;10115;50.906;4.438;2023-05-10T10:21:56;13.20;99.90
19906;DHT22;10115;50.906;4.438;2023-05-10T10:24:25;13.20;99.90
19906;DHT22;10115;50.906;4.438;2023-05-10T10:26:53;13.20;99.90
19906;DHT22;10115;50.906;4.438;2023-05-10T10:29:34;13.20;99.90
19906;DHT22;10115;50.906;4.438;2023-05-10T10:34:54;13.00;99.90
19906;DHT22;10115;50.906;4.438;2023-05-10T10:37:20;13.10;99.90
19906;DHT22;10115;50.906;4.438;2023-05-10T10:39:48;13.00;99.90
19906;DHT22;10115;50.906;4.438;2023-05-10T10:42:44;13.10;99.90
19906;DHT22;10115;50.906;4.438;2023-05-10T10:45:13;13.30;99.90
19906;DHT22;10115;50.906;4.438;2023-05-10T10:47:39;13.10;99.90
19906;DHT22;10115;50.906;4.438;2023-05-10T10:50:06;13.20;99.90
19906;DHT22;10115;50.906;4.438;2023-05-10T10:52:43;13.50;99.90
19906;DHT22;10115;50.906;4.438;2023-05-10T10:55:10;13.60;99.90
19906;DHT22;10115;50.906;4.438;2023-05-10T11:00:30;13.80;99.90
19906;DHT22;10115;50.906;4.438;2023-05-10T11:02:57;13.90;99.90
19906;DHT22;10115;50.906;4.438;2023-05-10T11:07:58;13.30;99.90
19906;DHT22;10115;50.906;4.438;2023-05-10T11:10:25;13.40;99.90
19906;DHT22;10115;50.906;4.438;2023-05-10T11:13:08;13.60;99.90
19906;DHT22;10115;50.906;4.438;2023-05-10T11:15:39;13.60;99.90
19906;DHT22;10115;50.906;4.438;2023-05-10T11:18:28;13.50;99.90
19906;DHT22;10115;50.906;4.438;2023-05-10T11:20:59;13.50;99.90
19906;DHT22;10115;50.906;4.438;2023-05-10T11:23:52;13.50;99.90
19906;DHT22;10115;50.906;4.438;2023-05-10T11:26:22;13.40;99.90
19906;DHT22;10115;50.906;4.438;2023-05-10T11:28:52;13.50;99.90
19906;DHT22;10115;50.906;4.438;2023-05-10T11:31:20;13.50;99.90
19906;DHT22;10115;50.906;4.438;2023-05-10T11:36:34;13.50;99.90
19906;DHT22;10115;50.906;4.438;2023-05-10T11:39:01;13.50;99.90
19906;DHT22;10115;50.906;4.438;2023-05-10T11:41:28;13.60;99.90
19906;DHT22;10115;50.906;4.438;2023-05-10T11:43:55;13.90;99.90
19906;DHT22;10115;50.906;4.438;2023-05-10T11:46:26;14.20;99.90
19906;DHT22;10115;50.906;4.438;2023-05-10T11:49:02;14.30;99.90
19906;DHT22;10115;50.906;4.438;2023-05-10T11:51:36;14.30;99.90
19906;DHT22;10115;50.906;4.438;2023-05-10T11:54:06;14.40;99.90
19906;DHT22;10115;50.906;4.438;2023-05-10T11:56:33;14.60;99.90
19906;DHT22;10115;50.906;4.438;2023-05-10T11:58:59;14.40;99.90
19906;DHT22;10115;50.906;4.438;2023-05-10T12:01:27;14.10;99.90
19906;DHT22;10115;50.906;4.438;2023-05-10T12:03:56;14.40;99.90
19906;DHT22;10115;50.906;4.438;2023-05-10T12:06:27;14.30;99.90
19906;DHT22;10115;50.906;4.438;2023-05-10T12:08:54;14.20;99.90
19906;DHT22;10115;50.906;4.438;2023-05-10T12:11:20;14.20;99.90
19906;DHT22;10115;50.906;4.438;2023-05-10T12:13:50;14.10;99.90
19906;DHT22;10115;50.906;4.438;2023-05-10T12:18:43;14.20;99.90
19906;DHT22;10115;50.906;4.438;2023-05-10T12:21:12;14.10;99.90
19906;DHT22;10115;50.906;4.438;2023-05-10T12:23:41;14.30;99.90
19906;DHT22;10115;50.906;4.438;2023-05-10T12:26:10;14.30;99.90
19906;DHT22;10115;50.906;4.438;2023-05-10T12:28:36;14.40;99.90
19906;DHT22;10115;50.906;4.438;2023-05-10T12:31:02;14.50;99.90
19906;DHT22;10115;50.906;4.438;2023-05-10T12:33:39;14.60;99.90
19906;DHT22;10115;50.906;4.438;2023-05-10T12:36:07;14.60;99.90
19906;DHT22;10115;50.906;4.438;2023-05-10T12:38:38;14.70;99.90
19906;DHT22;10115;50.906;4.438;2023-05-10T12:41:09;14.80;99.90
19906;DHT22;10115;50.906;4.438;2023-05-10T12:43:36;15.20;99.90
19906;DHT22;10115;50.906;4.438;2023-05-10T12:46:13;15.40;99.90
19906;DHT22;10115;50.906;4.438;2023-05-10T12:48:40;15.50;99.90
19906;DHT22;10115;50.906;4.438;2023-05-10T12:51:07;15.70;99.90
19906;DHT22;10115;50.906;4.438;2023-05-10T12:53:38;15.50;99.90
19906;DHT22;10115;50.906;4.438;2023-05-10T12:56:05;15.40;99.90
19906;DHT22;10115;50.906;4.438;2023-05-10T12:58:31;15.30;99.90
19906;DHT22;10115;50.906;4.438;2023-05-10T13:00:57;15.00;99.90
19906;DHT22;10115;50.906;4.438;2023-05-10T13:03:23;15.20;99.90
19906;DHT22;10115;50.906;4.438;2023-05-10T13:05:49;15.20;99.90
19906;DHT22;10115;50.906;4.438;2023-05-10T13:08:14;15.10;99.90
19906;DHT22;10115;50.906;4.438;2023-05-10T13:10:40;15.20;99.90
19906;DHT22;10115;50.906;4.438;2023-05-10T13:13:06;15.30;99.90
19906;DHT22;10115;50.906;4.438;2023-05-10T13:15:33;15.30;99.90
19906;DHT22;10115;50.906;4.438;2023-05-10T13:17:58;15.60;99.90
19906;DHT22;10115;50.906;4.438;2023-05-10T13:20:25;15.60;99.90
19906;DHT22;10115;50.906;4.438;2023-05-10T13:22:50;15.80;99.90
19906;DHT22;10115;50.906;4.438;2023-05-10T13:25:16;15.70;99.90
19906;DHT22;10115;50.906;4.438;2023-05-10T13:27:42;15.60;99.90
19906;DHT22;10115;50.906;4.438;2023-05-10T13:30:08;16.00;99.90
19906;DHT22;10115;50.906;4.438;2023-05-10T13:32:35;16.40;99.90
19906;DHT22;10115;50.906;4.438;2023-05-10T13:35:01;16.30;99.90
19906;DHT22;10115;50.906;4.438;2023-05-10T13:37:29;16.60;99.90
19906;DHT22;10115;50.906;4.438;2023-05-10T13:39:55;16.60;99.90
19906;DHT22;10115;50.906;4.438;2023-05-10T13:42:22;16.30;99.90
19906;DHT22;10115;50.906;4.438;2023-05-10T13:44:48;16.40;99.90
19906;DHT22;10115;50.906;4.438;2023-05-10T13:47:14;16.40;99.90
19906;DHT22;10115;50.906;4.438;2023-05-10T13:49:40;16.30;99.90
19906;DHT22;10115;50.906;4.438;2023-05-10T13:52:05;16.30;99.90
19906;DHT22;10115;50.906;4.438;2023-05-10T13:54:36;16.30;99.90
19906;DHT22;10115;50.906;4.438;2023-05-10T13:57:02;16.20;99.90
19906;DHT22;10115;50.906;4.438;2023-05-10T13:59:28;16.50;99.90
19906;DHT22;10115;50.906;4.438;2023-05-10T14:01:54;16.60;99.90
19906;DHT22;10115;50.906;4.438;2023-05-10T14:04:21;16.40;99.90
19906;DHT22;10115;50.906;4.438;2023-05-10T14:06:47;16.10;99.90
19906;DHT22;10115;50.906;4.438;2023-05-10T14:09:12;16.20;99.90
19906;DHT22;10115;50.906;4.438;2023-05-10T14:11:39;16.20;99.90
19906;DHT22;10115;50.906;4.438;2023-05-10T14:14:11;16.20;99.90
19906;DHT22;10115;50.906;4.438;2023-05-10T14:16:37;16.10;99.90
19906;DHT22;10115;50.906;4.438;2023-05-10T14:19:02;16.10;99.90
19906;DHT22;10115;50.906;4.438;2023-05-10T14:21:28;16.30;99.90
19906;DHT22;10115;50.906;4.438;2023-05-10T14:23:55;16.20;99.90
19906;DHT22;10115;50.906;4.438;2023-05-10T14:26:21;15.80;99.90
19906;DHT22;10115;50.906;4.438;2023-05-10T14:28:47;15.90;99.90
19906;DHT22;10115;50.906;4.438;2023-05-10T14:31:13;16.10;99.90
19906;DHT22;10115;50.906;4.438;2023-05-10T14:33:39;16.20;99.90
19906;DHT22;10115;50.906;4.438;2023-05-10T14:36:06;16.10;99.90
19906;DHT22;10115;50.906;4.438;2023-05-10T14:38:32;16.10;99.90
19906;DHT22;10115;50.906;4.438;2023-05-10T14:40:58;16.00;99.90
19906;DHT22;10115;50.906;4.438;2023-05-10T14:43:24;15.90;99.90
19906;DHT22;10115;50.906;4.438;2023-05-10T14:45:50;15.70;99.90
19906;DHT22;10115;50.906;4.438;2023-05-10T14:48:15;15.60;99.90
19906;DHT22;10115;50.906;4.438;2023-05-10T14:50:43;15.60;99.90
19906;DHT22;10115;50.906;4.438;2023-05-10T14:53:09;15.70;99.90
19906;DHT22;10115;50.906;4.438;2023-05-10T14:55:35;15.70;99.90
19906;DHT22;10115;50.906;4.438;2023-05-10T14:58:02;15.60;99.90
19906;DHT22;10115;50.906;4.438;2023-05-10T15:00:29;15.50;99.90
19906;DHT22;10115;50.906;4.438;2023-05-10T15:02:55;15.30;99.90
19906;DHT22;10115;50.906;4.438;2023-05-10T15:05:21;15.30;99.90
19906;DHT22;10115;50.906;4.438;2023-05-10T15:07:47;15.10;99.90
19906;DHT22;10115;50.906;4.438;2023-05-10T15:10:12;14.90;99.90
19906;DHT22;10115;50.906;4.438;2023-05-10T15:12:39;14.80;99.90
19906;DHT22;10115;50.906;4.438;2023-05-10T15:15:06;14.60;99.90
19906;DHT22;10115;50.906;4.438;2023-05-10T15:17:32;14.60;99.90
19906;DHT22;10115;50.906;4.438;2023-05-10T15:19:57;14.50;99.90
19906;DHT22;10115;50.906;4.438;2023-05-10T15:22:23;14.40;99.90
19906;DHT22;10115;50.906;4.438;2023-05-10T15:24:49;14.40;99.90
19906;DHT22;10115;50.906;4.438;2023-05-10T15:27:15;14.40;99.90
19906;DHT22;10115;50.906;4.438;2023-05-10T15:29:41;14.50;99.90
19906;DHT22;10115;50.906;4.438;2023-05-10T15:32:06;14.40;99.90
19906;DHT22;10115;50.906;4.438;2023-05-10T15:34:32;14.20;99.90
19906;DHT22;10115;50.906;4.438;2023-05-10T15:36:58;14.10;99.90
19906;DHT22;10115;50.906;4.438;2023-05-10T15:39:24;14.00;99.90
19906;DHT22;10115;50.906;4.438;2023-05-10T15:41:50;14.00;99.90
19906;DHT22;10115;50.906;4.438;2023-05-10T15:44:16;14.00;99.90
19906;DHT22;10115;50.906;4.438;2023-05-10T15:46:42;14.00;99.90
19906;DHT22;10115;50.906;4.438;2023-05-10T15:49:07;13.90;99.90
19906;DHT22;10115;50.906;4.438;2023-05-10T15:51:33;13.90;99.90
19906;DHT22;10115;50.906;4.438;2023-05-10T15:53:59;14.00;99.90
19906;DHT22;10115;50.906;4.438;2023-05-10T15:56:28;14.10;99.90
19906;DHT22;10115;50.906;4.438;2023-05-10T15:58:54;14.10;99.90
19906;DHT22;10115;50.906;4.438;2023-05-10T16:01:20;14.20;99.90
19906;DHT22;10115;50.906;4.438;2023-05-10T16:03:46;14.40;99.90
19906;DHT22;10115;50.906;4.438;2023-05-10T16:06:11;14.50;99.90
19906;DHT22;10115;50.906;4.438;2023-05-10T16:08:37;14.40;99.90